• Join FlightAware (Why Join?)
  • Login
  • US Flag 
01:17AM EDT


 

Airport Tracker/Info


-or-


 

Live Flight TrackerFlight Track Log ✈ CHH7967 ✈ 06-Sep-2014 ✈ ZBAA / PEK - UIII / IKT

Flight Track Log - Related Links

Times and Time Zones

All times are in EDT time to prevent confusion due to time zone crossing. See the CHH7967 flight status page for this flight to view local times or setup timezone preferences in your user account.

Time Position Orientation Groundspeed Altitude Reporting Facility
EDT Latitude Longitude Course Direction KTS MPH feet Rate Location/Type
10:50PM 44.5499 112.8543 330° Northwest  Level Estimated
10:51PM 44.6233 112.7874 327° Northwest  Level Estimated
10:52PM 44.6967 112.7203 327° Northwest  Level Estimated
10:53PM 44.7700 112.6531 327° Northwest  Level Estimated
10:54PM 44.8433 112.5857 327° Northwest  Level Estimated
10:55PM 44.9165 112.5182 327° Northwest  Level Estimated
10:56PM 44.9898 112.4504 327° Northwest  Level Estimated
10:57PM 45.0630 112.3825 327° Northwest  Level Estimated
10:58PM 45.1361 112.3144 327° Northwest  Level Estimated
10:59PM 45.2092 112.2462 327° Northwest  Level Estimated
11:00PM 45.2822 112.1777 327° Northwest  Level Estimated
11:01PM 45.3553 112.1091 327° Northwest  Level Estimated
11:02PM 45.4282 112.0403 327° Northwest  Level Estimated
11:03PM 45.5012 111.9714 326° Northwest  Level Estimated
11:04PM 45.5741 111.9022 326° Northwest  Level Estimated
11:05PM 45.6469 111.8329 326° Northwest  Level Estimated
11:06PM 45.7197 111.7634 326° Northwest  Level Estimated
11:07PM 45.7925 111.6937 326° Northwest  Level Estimated
11:08PM 45.8652 111.6238 326° Northwest  Level Estimated
11:09PM 45.9379 111.5538 326° Northwest  Level Estimated
11:10PM 46.0105 111.4835 326° Northwest  Level Estimated
11:11PM 46.0831 111.4131 326° Northwest  Level Estimated
11:12PM 46.1557 111.3425 326° Northwest  Level Estimated
11:13PM 46.2282 111.2717 326° Northwest  Level Estimated
11:14PM 46.3007 111.2007 326° Northwest  Level Estimated
11:15PM 46.3731 111.1296 326° Northwest  Level Estimated
11:16PM 46.4454 111.0582 326° Northwest  Level Estimated
11:17PM 46.5178 110.9867 326° Northwest  Level Estimated
11:18PM 46.5901 110.9149 326° Northwest  Level Estimated
11:19PM 46.6623 110.8430 326° Northwest  Level Estimated
11:20PM 46.7345 110.7709 326° Northwest  Level Estimated
11:21PM 46.8067 110.6986 326° Northwest  Level Estimated
11:22PM 46.8788 110.6261 326° Northwest  Level Estimated
11:23PM 46.9508 110.5534 325° Northwest  Level Estimated
11:24PM 47.0228 110.4805 325° Northwest  Level Estimated
11:25PM 47.0948 110.4074 325° Northwest  Level Estimated
11:26PM 47.1667 110.3341 325° Northwest  Level Estimated
11:27PM 47.2386 110.2606 325° Northwest  Level Estimated
11:28PM 47.3104 110.1869 325° Northwest  Level Estimated
11:29PM 47.3822 110.1130 325° Northwest  Level Estimated
11:30PM 47.4539 110.0389 325° Northwest  Level Estimated
11:31PM 47.5256 109.9646 325° Northwest  Level Estimated
11:32PM 47.5973 109.8901 325° Northwest  Level Estimated
11:33PM 47.6688 109.8154 325° Northwest  Level Estimated
11:34PM 47.7404 109.7405 325° Northwest  Level Estimated
11:35PM 47.8119 109.6654 325° Northwest  Level Estimated
11:36PM 47.8833 109.5900 325° Northwest  Level Estimated
11:37PM 47.9547 109.5145 325° Northwest  Level Estimated
11:38PM 48.0261 109.4388 325° Northwest  Level Estimated
11:39PM 48.0973 109.3628 325° Northwest  Level Estimated
11:40PM 48.1686 109.2867 325° Northwest  Level Estimated
11:41PM 48.2398 109.2103 324° Northwest  Level Estimated
11:42PM 48.3109 109.1337 324° Northwest  Level Estimated
11:43PM 48.3820 109.0569 324° Northwest  Level Estimated
11:44PM 48.4530 108.9799 324° Northwest  Level Estimated
11:45PM 48.5240 108.9027 324° Northwest  Level Estimated
11:46PM 48.5950 108.8252 324° Northwest  Level Estimated
11:47PM 48.6659 108.7476 324° Northwest  Level Estimated
11:48PM 48.7367 108.6697 324° Northwest  Level Estimated
11:49PM 48.8075 108.5916 324° Northwest  Level Estimated
11:50PM 48.8782 108.5132 324° Northwest  Level Estimated
11:51PM 48.9489 108.4347 324° Northwest  Level Estimated
11:52PM 49.0195 108.3559 324° Northwest  Level Estimated
11:53PM 49.0900 108.2769 324° Northwest  Level Estimated
11:54PM 49.1605 108.1977 324° Northwest  Level Estimated
11:55PM 49.2310 108.1183 324° Northwest  Level Estimated
11:56PM 49.3014 108.0386 324° Northwest  Level Estimated
11:57PM 49.3717 107.9587 324° Northwest  Level Estimated
11:58PM 49.4421 107.8786 323° Northwest  Level Estimated
11:59PM 49.5123 107.7982 323° Northwest  Level Estimated
12:00AM 49.5825 107.7177 323° Northwest  Level Estimated
12:01AM 49.6526 107.6368 323° Northwest  Level Estimated
12:02AM 49.7226 107.5558 323° Northwest  Level Estimated
12:03AM 49.7927 107.4745 323° Northwest  Level Estimated
12:04AM 49.8626 107.3930 323° Northwest  Level Estimated
12:05AM 49.9325 107.3112 323° Northwest  Level Estimated
12:06AM 50.0023 107.2292 323° Northwest  Level Estimated
12:07AM 50.0721 107.1470 323° Northwest  Level Estimated
12:08AM 50.1419 107.0645 323° Northwest  Level Estimated
12:09AM 50.2115 106.9818 323° Northwest  Level Estimated
12:10AM 50.2811 106.8988 323° Northwest  Level Estimated
12:11AM 50.3507 106.8157 323° Northwest  Level Estimated
12:12AM 50.4202 106.7322 323° Northwest  Level Estimated
12:13AM 50.4896 106.6485 323° Northwest  Level Estimated
12:14AM 50.5589 106.5646 322° Northwest  Level Estimated
12:15AM 50.6283 106.4804 322° Northwest  Level Estimated
12:16AM 50.6975 106.3960 322° Northwest  Level Estimated
12:17AM 50.7667 106.3113 322° Northwest  Level Estimated
12:18AM 50.8358 106.2264 322° Northwest  Level Estimated
12:19AM 50.9049 106.1412 322° Northwest  Level Estimated
12:20AM 50.9739 106.0558 322° Northwest  Level Estimated
12:21AM 51.0428 105.9701 322° Northwest  Level Estimated
12:22AM 51.1117 105.8841 322° Northwest  Level Estimated
12:23AM 51.1805 105.7979 322° Northwest  Level Estimated
12:24AM 51.2492 105.7115 322° Northwest  Level Estimated
12:25AM 51.3179 105.6248 322° Northwest  Level Estimated
12:26AM 51.3865 105.5378 322° Northwest  Level Estimated
12:27AM 51.4551 105.4505 322° Northwest  Level Estimated
12:28AM 51.5236 105.3631 322° Northwest  Level Estimated
12:29AM 51.5920 105.2753 321° Northwest  Level Estimated
12:30AM 51.6604 105.1873 321° Northwest  Level Estimated
12:31AM 51.7286 105.0990 321° Northwest  Level Estimated
12:32AM 51.7969 105.0104 321° Northwest  Level Estimated
12:33AM 51.8650 104.9216 321° Northwest  Level Estimated
12:34AM 51.9331 104.8325 321° Northwest  Level Estimated
12:35AM 52.0011 104.7431 321° Northwest  Level Estimated
12:36AM 52.0691 104.6535 321° Northwest  Level Estimated
12:37AM 52.1370 104.5636 321° Northwest  Level Estimated
12:38AM 52.2048 104.4734 321° Northwest  Level Estimated
12:39AM 52.2680 104.3890 321° Northwest  Level Estimated
12:40AM 52.2680 104.3890 North  Level Estimated
12:41AM 52.2680 104.3890 North  Level Estimated
12:42AM 52.2680 104.3890 North  Level Estimated
12:43AM 52.2680 104.3890 North  Level Estimated
12:44AM 52.2680 104.3890 North  Level Estimated
12:45AM 52.2680 104.3890 North  Level Estimated
12:46AM 52.2680 104.3890 North  Level Estimated
12:47AM 52.2680 104.3890 North  Level Estimated
12:48AM 52.2680 104.3890 North  Level Estimated
12:49AM 52.2680 104.3890 North  Level Estimated
12:50AM 52.2680 104.3890 North  Level Estimated
12:51AM 52.2680 104.3890 North  Level Estimated
12:52AM 52.2680 104.3890 North  Level Estimated
12:53AM 52.2680 104.3890 North  Level Estimated
12:54AM 52.2680 104.3890 North  Level Estimated
12:55AM 52.2680 104.3890 North  Level Estimated